Time;durP1;ratioP1;P1;durP2;ratioP2;P2;SDS_P1;SDS_P2;PMS_P1;PMS_P2;Temp;Humidity;BMP_temperature;BMP_pressure;BME280_temperature;BME280_humidity;BME280_pressure;Samples;Min_cycle;Max_cycle;Signal;HPM_P1;HPM_P2
2023/03/07 00:01:05;;;;;;;14.05;6.32;;;;;;;0.36;84.08;96092.25;5065677;28;20068;-61
2023/03/07 00:03:32;;;;;;;13.23;6.82;;;;;;;0.57;82.47;96087.56;5076188;28;20036;-61
2023/03/07 00:06:09;;;;;;;13.98;6.28;;;;;;;0.53;82.95;96097.84;5084047;28;20131;-61
2023/03/07 00:08:36;;;;;;;14.90;7.07;;;;;;;0.69;81.41;96100.97;5074490;28;20527;-61
2023/03/07 00:11:05;;;;;;;15.10;6.80;;;;;;;0.78;80.66;96094.34;5070467;28;20040;-61
2023/03/07 00:13:33;;;;;;;14.70;6.85;;;;;;;0.85;81.20;96100.41;5072177;28;20044;-61
2023/03/07 00:16:01;;;;;;;13.50;6.15;;;;;;;0.99;79.94;96095.75;5072678;28;20043;-61
2023/03/07 00:18:29;;;;;;;16.15;7.95;;;;;;;1.01;80.22;96099.00;5077062;28;20071;-61
2023/03/07 00:21:00;;;;;;;12.88;6.35;;;;;;;1.11;79.99;96093.13;5070693;28;20044;-61
2023/03/07 00:23:27;;;;;;;14.57;6.60;;;;;;;1.14;79.74;96089.25;5071854;28;20036;-61
2023/03/07 00:26:03;;;;;;;12.82;6.40;;;;;;;1.02;79.70;96083.81;5075051;28;20040;-61
2023/03/07 00:28:30;;;;;;;14.65;6.97;;;;;;;0.77;80.82;96079.38;5076087;28;20694;-60
2023/03/07 00:31:02;;;;;;;13.20;7.15;;;;;;;0.81;80.37;96082.44;5067563;28;20072;-61
2023/03/07 00:33:29;;;;;;;13.85;6.80;;;;;;;0.90;79.79;96073.91;5078011;28;20036;-61
2023/03/07 00:36:01;;;;;;;15.85;8.52;;;;;;;0.83;79.90;96072.34;5075443;28;20036;-60
2023/03/07 00:38:29;;;;;;;13.38;6.68;;;;;;;0.89;79.43;96060.81;5074152;28;20455;-60
2023/03/07 00:40:58;;;;;;;16.00;7.90;;;;;;;0.82;79.76;96066.22;5073772;28;20176;-61
2023/03/07 00:43:25;;;;;;;13.00;6.78;;;;;;;0.78;79.43;96052.50;5073334;28;20052;-61
2023/03/07 00:45:52;;;;;;;16.85;7.22;;;;;;;0.88;79.18;96059.97;5077001;28;20530;-61
2023/03/07 00:48:19;;;;;;;14.73;6.60;;;;;;;1.05;78.63;96062.06;5072881;28;20055;-61
2023/03/07 00:50:49;;;;;;;12.25;6.22;;;;;;;1.02;78.44;96065.97;5074136;28;20033;-61
2023/03/07 00:53:16;;;;;;;13.05;6.22;;;;;;;1.19;77.90;96062.72;5071975;28;20510;-61
2023/03/07 00:55:55;;;;;;;12.05;5.93;;;;;;;1.25;77.50;96061.81;5070689;28;20044;-61
2023/03/07 00:58:22;;;;;;;12.23;6.20;;;;;;;1.28;77.63;96065.88;5072514;28;20044;-61
2023/03/07 01:00:49;;;;;;;11.25;6.15;;;;;;;1.34;77.68;96065.00;5075785;28;20445;-61
2023/03/07 01:03:18;;;;;;;11.10;6.18;;;;;;;1.26;77.63;96066.09;5054302;28;20125;-60
2023/03/07 01:05:45;;;;;;;11.40;5.90;;;;;;;1.23;77.64;96071.06;5073121;28;20040;-61
2023/03/07 01:08:12;;;;;;;15.35;6.90;;;;;;;1.17;77.77;96067.44;5073565;28;20407;-61
2023/03/07 01:10:39;;;;;;;11.88;5.97;;;;;;;1.22;77.52;96062.25;5072956;28;20036;-61
2023/03/07 01:13:06;;;;;;;12.52;6.30;;;;;;;1.19;77.92;96061.88;5075493;28;20443;-61
2023/03/07 01:15:32;;;;;;;12.27;6.07;;;;;;;1.16;77.45;96055.97;5076356;28;20040;-60
2023/03/07 01:17:59;;;;;;;14.50;6.45;;;;;;;1.24;78.08;96051.34;5077379;28;20028;-61
2023/03/07 01:20:26;;;;;;;16.58;6.53;;;;;;;1.21;77.58;96054.50;5075028;28;20047;-61
2023/03/07 01:22:52;;;;;;;13.18;6.18;;;;;;;1.11;77.96;96053.16;5069196;28;20050;-61
2023/03/07 01:25:19;;;;;;;11.82;6.45;;;;;;;1.07;77.97;96056.50;5072482;28;20113;-61
2023/03/07 01:27:46;;;;;;;14.43;6.72;;;;;;;1.09;78.27;96052.56;5072238;28;20043;-61
2023/03/07 01:30:12;;;;;;;13.10;6.68;;;;;;;1.07;78.15;96051.16;5073485;28;20123;-61
2023/03/07 01:32:39;;;;;;;14.93;6.78;;;;;;;1.07;78.17;96051.97;5070509;28;20110;-61
2023/03/07 01:35:06;;;;;;;14.20;5.85;;;;;;;1.03;78.76;96042.78;5068650;28;20036;-61
2023/03/07 01:37:32;;;;;;;12.32;6.05;;;;;;;1.01;78.65;96039.56;5070257;28;20032;-61
2023/03/07 01:39:59;;;;;;;12.18;5.82;;;;;;;1.14;78.50;96046.59;5078424;28;20192;-61
2023/03/07 01:42:30;;;;;;;14.73;6.60;;;;;;;1.02;79.19;96042.00;5072471;28;20059;-62
2023/03/07 01:44:58;;;;;;;13.50;6.72;;;;;;;1.04;79.13;96026.56;5071920;28;20105;-61
2023/03/07 01:47:30;;;;;;;15.52;7.47;;;;;;;1.25;77.41;96031.69;5068055;28;20043;-61
2023/03/07 01:50:00;;;;;;;13.77;6.50;;;;;;;1.25;77.03;96035.13;5069956;28;20499;-61
2023/03/07 01:52:32;;;;;;;13.00;6.60;;;;;;;1.36;77.00;96025.56;5086593;28;20168;-61
2023/03/07 01:55:15;;;;;;;13.23;6.82;;;;;;;1.35;76.40;96033.78;5083035;27;20055;-60
2023/03/07 01:57:45;;;;;;;14.57;6.22;;;;;;;1.43;76.08;96022.78;5071182;28;20041;-61
2023/03/07 02:00:18;;;;;;;13.98;6.65;;;;;;;1.27;77.03;96025.06;5072299;28;20572;-61
2023/03/07 02:02:50;;;;;;;13.15;7.32;;;;;;;1.11;78.03;96018.50;5070712;28;20064;-61
2023/03/07 02:05:25;;;;;;;11.50;6.30;;;;;;;0.90;79.26;96012.63;5071623;28;20088;-61
2023/03/07 02:07:54;;;;;;;13.25;5.97;;;;;;;0.93;79.07;96014.03;5050265;28;21353;-61
2023/03/07 02:10:24;;;;;;;13.02;7.00;;;;;;;0.83;79.51;96011.88;5070105;28;20580;-61
2023/03/07 02:12:52;;;;;;;13.30;6.55;;;;;;;0.87;79.19;96010.41;5067318;28;20060;-61
2023/03/07 02:15:20;;;;;;;13.40;6.47;;;;;;;0.83;79.44;96009.22;5071263;28;20128;-61
2023/03/07 02:17:47;;;;;;;13.55;7.05;;;;;;;0.78;80.37;95998.41;5070247;28;20561;-61
2023/03/07 02:20:24;;;;;;;15.10;7.15;;;;;;;0.82;80.32;96006.78;5067285;28;20087;-61
2023/03/07 02:22:53;;;;;;;14.07;7.32;;;;;;;0.82;80.42;95996.09;5066721;28;20048;-61
2023/03/07 02:25:40;;;;;;;13.98;6.88;;;;;;;0.98;79.11;95998.16;5068506;28;21477;-61
2023/03/07 02:28:11;;;;;;;15.45;7.88;;;;;;;1.01;79.41;95992.41;5071640;28;20032;-60
2023/03/07 02:30:50;;;;;;;14.30;7.25;;;;;;;0.99;79.64;95989.13;5071798;28;20063;-60
2023/03/07 02:33:17;;;;;;;14.73;7.78;;;;;;;0.99;79.97;95983.78;5068984;28;20036;-61
2023/03/07 02:35:44;;;;;;;15.10;7.47;;;;;;;0.90;80.36;95980.63;5067775;28;20036;-61
2023/03/07 02:38:11;;;;;;;15.65;7.28;;;;;;;1.02;80.39;95974.53;5073012;28;20033;-61
2023/03/07 02:40:38;;;;;;;15.20;6.90;;;;;;;1.22;79.59;95978.78;5070426;28;20067;-61
2023/03/07 02:43:08;;;;;;;12.23;6.35;;;;;;;1.15;79.08;95976.22;5061705;28;20075;-60
2023/03/07 02:45:36;;;;;;;13.75;7.65;;;;;;;1.10;79.55;95974.22;5066830;28;20097;-61
2023/03/07 02:48:03;;;;;;;14.82;6.65;;;;;;;1.13;79.36;95973.78;5072055;28;20097;-60
2023/03/07 02:50:30;;;;;;;14.40;7.57;;;;;;;0.98;79.58;95970.69;5074344;28;20173;-61
2023/03/07 02:52:56;;;;;;;14.25;6.30;;;;;;;1.02;79.22;95974.53;5068580;28;20040;-60
2023/03/07 02:55:23;;;;;;;14.40;7.78;;;;;;;0.88;80.54;95971.22;5070543;28;20127;-60
2023/03/07 02:57:56;;;;;;;14.75;8.20;;;;;;;0.88;80.31;95969.38;5076362;28;20094;-60
2023/03/07 03:00:23;;;;;;;14.15;6.70;;;;;;;1.07;79.64;95965.88;5081178;28;20523;-60
2023/03/07 03:02:50;;;;;;;16.23;7.72;;;;;;;1.14;79.80;95969.25;5067769;28;20036;-61
2023/03/07 03:05:18;;;;;;;12.15;5.80;;;;;;;1.23;79.56;95967.91;5071506;28;20044;-60
2023/03/07 03:07:45;;;;;;;12.65;6.88;;;;;;;1.17;80.17;95964.28;5069170;28;20457;-60
2023/03/07 03:10:11;;;;;;;13.00;6.65;;;;;;;1.03;81.44;95965.47;5066782;28;20036;-60
2023/03/07 03:12:38;;;;;;;13.88;6.72;;;;;;;1.00;81.94;95968.63;5073750;28;20040;-61
2023/03/07 03:15:05;;;;;;;14.65;7.43;;;;;;;1.09;81.53;95967.25;5074494;28;20098;-60
2023/03/07 03:17:32;;;;;;;14.20;6.60;;;;;;;1.05;81.74;95966.09;5072022;28;20036;-61
2023/03/07 03:19:59;;;;;;;11.05;6.32;;;;;;;0.96;81.87;95970.13;5072070;28;20117;-60
2023/03/07 03:22:25;;;;;;;15.18;7.35;;;;;;;1.02;81.72;95961.19;5072159;28;20044;-61
2023/03/07 03:24:52;;;;;;;12.80;6.28;;;;;;;1.15;80.96;95963.69;5072880;28;20048;-61
2023/03/07 03:27:19;;;;;;;12.48;6.18;;;;;;;1.06;81.58;95959.72;5065249;28;20040;-60
2023/03/07 03:29:48;;;;;;;13.65;7.45;;;;;;;1.22;80.69;95962.78;5072476;28;20047;-61
2023/03/07 03:32:15;;;;;;;11.30;6.22;;;;;;;1.31;81.01;95974.75;5062981;28;20044;-61
2023/03/07 03:34:43;;;;;;;12.40;6.55;;;;;;;1.33;80.41;95963.88;5057686;28;20098;-60
2023/03/07 03:37:10;;;;;;;16.50;7.68;;;;;;;1.28;81.03;95969.88;5074646;28;20552;-60
2023/03/07 03:39:37;;;;;;;17.42;7.05;;;;;;;1.23;81.51;95965.22;5075250;28;20526;-61
2023/03/07 03:42:05;;;;;;;13.48;6.97;;;;;;;1.34;81.26;95965.47;5077232;28;20032;-61
2023/03/07 03:44:31;;;;;;;13.85;7.10;;;;;;;1.35;81.40;95959.09;5074663;28;20089;-61
2023/03/07 03:46:58;;;;;;;12.60;6.88;;;;;;;1.19;82.86;95961.41;5063878;28;20036;-61
2023/03/07 03:49:25;;;;;;;15.57;7.63;;;;;;;1.24;83.35;95955.38;5083730;28;20407;-60
2023/03/07 03:51:53;;;;;;;15.82;7.95;;;;;;;1.33;83.43;95943.34;5060118;28;20048;-60
2023/03/07 03:54:20;;;;;;;13.93;6.60;;;;;;;1.26;83.78;95946.09;5074525;28;20918;-61
2023/03/07 03:56:46;;;;;;;11.75;6.63;;;;;;;1.42;83.18;95944.66;5079455;28;20048;-60
2023/03/07 03:59:13;;;;;;;16.00;8.40;;;;;;;1.41;83.14;95936.88;5081563;28;20036;-60
2023/03/07 04:01:40;;;;;;;16.63;7.10;;;;;;;1.45;82.87;95940.69;5075535;28;20047;-61
2023/03/07 04:04:07;;;;;;;13.95;6.63;;;;;;;1.36;84.05;95945.53;5076281;28;20060;-60
2023/03/07 04:06:34;;;;;;;14.65;8.05;;;;;;;1.49;83.96;95938.38;5083047;28;20044;-61
2023/03/07 04:09:02;;;;;;;17.98;8.52;;;;;;;1.25;85.46;95938.34;5073816;28;20036;-61
2023/03/07 04:11:30;;;;;;;13.95;7.78;;;;;;;1.22;85.30;95936.91;5069732;28;20043;-61
2023/03/07 04:13:58;;;;;;;13.65;8.70;;;;;;;1.15;85.85;95941.56;5080699;28;20036;-60
2023/03/07 04:16:24;;;;;;;14.98;6.80;;;;;;;1.29;85.35;95939.50;5070415;28;20047;-61
2023/03/07 04:18:51;;;;;;;14.30;6.53;;;;;;;1.24;85.30;95936.69;5073545;28;20581;-61
2023/03/07 04:21:20;;;;;;;15.35;7.25;;;;;;;1.39;84.35;95930.94;5076066;28;20124;-61
2023/03/07 04:23:54;;;;;;;16.02;7.75;;;;;;;1.36;84.61;95920.75;5074225;28;20032;-61
2023/03/07 04:26:22;;;;;;;13.20;6.63;;;;;;;1.22;86.15;95928.13;5079232;28;20062;-61
2023/03/07 04:28:48;;;;;;;15.20;6.88;;;;;;;1.25;85.96;95933.00;5078091;28;20029;-61
2023/03/07 04:31:24;;;;;;;13.98;7.93;;;;;;;1.14;86.37;95927.41;5072691;28;20048;-61
2023/03/07 04:33:52;;;;;;;;;;;;;;;1.13;86.80;95931.13;5077971;28;20136;-60
2023/03/07 04:36:20;;;;;;;11.68;6.15;;;;;;;1.12;87.00;95923.34;5070232;28;20548;-61
2023/03/07 04:38:48;;;;;;;15.45;6.55;;;;;;;1.03;87.85;95925.50;5071930;28;20044;-59
2023/03/07 04:41:18;;;;;;;15.98;9.10;;;;;;;1.04;87.22;95933.28;5075021;28;20124;-61
2023/03/07 04:43:47;;;;;;;13.98;7.10;;;;;;;1.20;86.68;95931.00;5066541;28;20040;-57
2023/03/07 04:46:15;;;;;;;14.45;7.20;;;;;;;1.12;87.24;95934.81;5076339;28;20043;-59
2023/03/07 04:48:42;;;;;;;14.73;8.20;;;;;;;1.04;87.54;95921.81;5071825;28;20445;-57
2023/03/07 04:51:09;;;;;;;16.33;7.82;;;;;;;1.01;88.03;95923.09;5073334;28;20116;-58
2023/03/07 04:53:35;;;;;;;13.30;7.93;;;;;;;1.00;88.13;95923.31;5078207;28;20073;-58
2023/03/07 04:56:05;;;;;;;16.67;6.60;;;;;;;1.04;88.60;95919.16;5072481;28;20032;-57
2023/03/07 04:58:32;;;;;;;14.68;6.88;;;;;;;1.05;88.54;95918.09;5067240;28;22695;-57
2023/03/07 05:01:01;;;;;;;15.00;6.57;;;;;;;1.18;87.18;95917.09;5072163;28;20151;-56
2023/03/07 05:03:28;;;;;;;14.00;7.25;;;;;;;1.13;87.91;95915.13;5075455;28;20047;-58
2023/03/07 05:06:01;;;;;;;12.00;6.65;;;;;;;1.14;86.61;95911.41;5071616;28;20049;-58
2023/03/07 05:08:28;;;;;;;16.13;7.68;;;;;;;1.09;87.36;95913.94;5077486;28;20051;-57
2023/03/07 05:10:56;;;;;;;12.80;7.25;;;;;;;1.06;88.09;95905.59;5081421;28;20051;-57
2023/03/07 05:13:23;;;;;;;16.40;7.22;;;;;;;1.16;86.42;95896.00;5088445;28;20075;-58
2023/03/07 05:15:51;;;;;;;13.52;7.22;;;;;;;1.14;86.89;95900.75;5082675;28;20064;-58
2023/03/07 05:18:19;;;;;;;12.60;6.47;;;;;;;1.17;86.53;95894.13;5077081;28;20055;-56
2023/03/07 05:20:46;;;;;;;14.75;7.30;;;;;;;1.17;85.87;95886.97;5077556;28;20126;-57
2023/03/07 05:23:13;;;;;;;11.50;6.35;;;;;;;1.25;86.13;95885.00;5070464;28;20072;-58
2023/03/07 05:25:39;;;;;;;16.50;8.20;;;;;;;1.16;86.25;95885.34;5076958;28;20040;-57
2023/03/07 05:28:09;;;;;;;16.55;8.63;;;;;;;1.09;86.97;95884.63;5075076;28;20500;-57
2023/03/07 05:30:35;;;;;;;13.48;7.57;;;;;;;1.06;86.22;95881.63;5083515;28;20049;-57
2023/03/07 05:33:02;;;;;;;13.95;7.05;;;;;;;1.02;85.69;95889.22;5077509;28;20068;-58
2023/03/07 05:35:29;;;;;;;15.95;6.70;;;;;;;0.96;84.92;95890.16;5074875;28;20090;-58
2023/03/07 05:37:57;;;;;;;14.85;7.10;;;;;;;0.92;84.11;95886.31;5073315;28;20062;-57
2023/03/07 05:40:24;;;;;;;16.17;7.03;;;;;;;0.98;83.68;95885.41;5078437;28;20050;-58
2023/03/07 05:42:50;;;;;;;14.20;7.00;;;;;;;1.00;83.07;95888.66;5071653;28;20040;-55
2023/03/07 05:45:19;;;;;;;13.43;7.82;;;;;;;0.99;82.20;95895.84;5073424;28;20044;-57
2023/03/07 05:47:46;;;;;;;12.75;6.93;;;;;;;1.09;81.21;95881.13;5072757;28;20039;-56
2023/03/07 05:50:13;;;;;;;13.00;6.55;;;;;;;1.04;81.75;95879.16;5078418;28;20032;-57
2023/03/07 05:52:40;;;;;;;15.27;6.32;;;;;;;1.10;81.43;95880.91;5074750;28;20048;-58
2023/03/07 05:55:07;;;;;;;13.73;7.75;;;;;;;1.06;81.39;95876.28;5076256;28;20692;-58
2023/03/07 05:57:34;;;;;;;11.57;6.25;;;;;;;1.07;81.42;95876.03;5072447;28;20040;-57
2023/03/07 06:00:01;;;;;;;13.07;6.88;;;;;;;1.05;81.84;95880.78;5080226;28;20094;-58
2023/03/07 06:02:28;;;;;;;16.52;7.40;;;;;;;1.04;81.37;95871.16;5075035;28;20048;-57
2023/03/07 06:04:54;;;;;;;12.85;6.35;;;;;;;1.06;81.48;95866.41;5072768;28;20400;-57
2023/03/07 06:07:21;;;;;;;12.07;6.63;;;;;;;1.15;80.70;95864.25;5077185;28;20066;-56
2023/03/07 06:09:48;;;;;;;14.00;6.82;;;;;;;1.18;81.04;95858.44;5079768;28;20040;-56
2023/03/07 06:12:14;;;;;;;14.93;7.30;;;;;;;1.24;80.20;95859.38;5078232;28;20047;-58
2023/03/07 06:14:41;;;;;;;17.25;7.22;;;;;;;1.31;79.65;95868.09;5083513;28;20728;-57
2023/03/07 06:17:07;;;;;;;13.10;7.30;;;;;;;1.28;79.66;95863.19;5075116;28;20041;-57
2023/03/07 06:19:34;;;;;;;17.88;8.82;;;;;;;1.35;79.45;95868.44;5079524;28;20067;-58
2023/03/07 06:22:00;;;;;;;18.42;9.07;;;;;;;1.35;79.82;95863.91;5077901;28;20066;-57
2023/03/07 06:24:28;;;;;;;14.45;6.82;;;;;;;1.36;79.39;95862.06;5071500;28;20047;-56
2023/03/07 06:26:54;;;;;;;23.05;12.13;;;;;;;1.38;78.96;95859.97;5068636;28;20043;-57
2023/03/07 06:29:23;;;;;;;25.25;11.98;;;;;;;1.16;80.21;95869.34;5076112;28;20135;-58
2023/03/07 06:31:50;;;;;;;19.73;10.10;;;;;;;1.07;80.24;95864.56;5069985;28;20175;-56
2023/03/07 06:34:16;;;;;;;15.80;9.23;;;;;;;0.98;81.00;95885.41;5073967;28;20044;-55
2023/03/07 06:36:44;;;;;;;20.20;10.60;;;;;;;1.03;80.73;95869.53;5073125;28;20598;-57
2023/03/07 06:39:11;;;;;;;23.83;13.73;;;;;;;1.04;80.29;95868.50;5074376;28;20032;-58
2023/03/07 06:41:37;;;;;;;18.20;9.57;;;;;;;1.04;80.66;95863.97;5080319;28;20039;-56
2023/03/07 06:44:04;;;;;;;14.77;7.90;;;;;;;1.11;80.03;95865.75;5069605;28;20040;-57
2023/03/07 06:46:33;;;;;;;14.77;7.60;;;;;;;1.03;80.21;95858.88;5071921;28;20451;-59
2023/03/07 06:49:04;;;;;;;14.27;8.82;;;;;;;0.90;80.86;95884.69;5069491;28;20134;-58
2023/03/07 06:51:32;;;;;;;14.60;7.50;;;;;;;0.84;81.41;95882.09;5068286;28;20045;-59
2023/03/07 06:53:59;;;;;;;16.88;9.02;;;;;;;0.90;81.13;95884.69;5062885;28;20029;-58
2023/03/07 06:56:28;;;;;;;19.17;11.48;;;;;;;0.78;81.18;95876.63;5067436;28;20101;-57
2023/03/07 06:58:55;;;;;;;18.30;8.50;;;;;;;0.95;81.23;95881.34;5079531;28;20454;-58
2023/03/07 07:01:23;;;;;;;15.48;8.73;;;;;;;1.07;80.85;95878.69;5069113;28;20048;-58
2023/03/07 07:03:52;;;;;;;14.68;8.02;;;;;;;1.00;80.39;95865.47;5068410;28;20064;-59
2023/03/07 07:06:19;;;;;;;58.67;26.10;;;;;;;0.95;80.83;95880.53;5066156;28;20459;-58
2023/03/07 07:08:47;;;;;;;20.38;9.98;;;;;;;1.01;80.64;95891.09;5068100;28;20439;-58
2023/03/07 07:11:13;;;;;;;32.92;15.90;;;;;;;0.89;81.97;95880.38;5068205;28;20507;-56
2023/03/07 07:13:41;;;;;;;12.32;7.05;;;;;;;0.93;82.57;95880.75;5068450;28;20048;-57
2023/03/07 07:16:09;;;;;;;25.45;12.68;;;;;;;0.90;81.78;95875.88;5078850;28;20541;-59
2023/03/07 07:18:37;;;;;;;21.38;9.00;;;;;;;0.91;81.46;95874.84;5075983;28;20088;-58
2023/03/07 07:21:05;;;;;;;14.98;8.73;;;;;;;0.96;82.05;95879.50;5070695;28;20041;-58
2023/03/07 07:23:32;;;;;;;15.80;7.97;;;;;;;1.10;81.20;95870.25;5074885;28;20048;-58
2023/03/07 07:25:59;;;;;;;16.63;7.60;;;;;;;1.12;81.14;95870.03;5075593;28;20060;-57
2023/03/07 07:28:26;;;;;;;35.45;15.35;;;;;;;1.23;81.03;95871.91;5078725;28;20055;-58
2023/03/07 07:30:53;;;;;;;28.35;13.35;;;;;;;1.26;80.80;95875.97;5074414;28;20131;-58
2023/03/07 07:33:19;;;;;;;27.85;12.27;;;;;;;1.25;80.60;95874.34;5068214;28;20049;-57
2023/03/07 07:35:49;;;;;;;19.50;9.68;;;;;;;1.31;80.14;95870.75;5067070;28;20048;-58
2023/03/07 07:38:16;;;;;;;22.33;10.82;;;;;;;1.30;80.42;95879.81;5065464;28;20060;-58
2023/03/07 07:40:43;;;;;;;20.38;11.23;;;;;;;1.38;80.18;95871.47;5072995;28;20638;-57
2023/03/07 07:43:14;;;;;;;15.02;8.10;;;;;;;1.55;80.50;95868.13;5075455;28;20058;-57
2023/03/07 07:45:46;;;;;;;25.27;12.13;;;;;;;1.62;79.92;95870.66;5074172;28;20051;-57
2023/03/07 07:48:16;;;;;;;18.90;7.70;;;;;;;1.77;78.74;95864.88;5068254;28;20692;-57
2023/03/07 07:50:43;;;;;;;16.35;8.30;;;;;;;1.85;78.84;95864.53;5071421;28;20523;-58
2023/03/07 07:53:10;;;;;;;29.77;14.07;;;;;;;2.09;78.32;95869.81;5066070;28;20120;-57
2023/03/07 07:55:37;;;;;;;27.65;11.45;;;;;;;2.35;77.27;95867.66;5075822;28;20039;-52
2023/03/07 07:58:03;;;;;;;16.08;7.85;;;;;;;2.62;76.82;95864.47;5075687;28;20122;-55
2023/03/07 08:00:31;;;;;;;12.63;7.03;;;;;;;2.95;76.52;95864.78;5075035;28;20040;-56
2023/03/07 08:02:58;;;;;;;18.27;8.73;;;;;;;3.28;72.44;95854.38;5070325;28;20040;-53
2023/03/07 08:05:24;;;;;;;12.85;6.55;;;;;;;3.61;69.81;95858.09;5042203;28;20056;-53
2023/03/07 08:07:51;;;;;;;12.55;6.47;;;;;;;3.64;68.79;95862.94;5060987;28;20530;-52
2023/03/07 08:10:18;;;;;;;13.50;5.35;;;;;;;3.88;68.98;95860.06;5069829;28;20116;-54
2023/03/07 08:12:50;;;;;;;8.30;4.55;;;;;;;3.69;66.83;95849.63;5040009;28;20052;-63
2023/03/07 08:15:18;;;;;;;;;;;;;;;3.50;66.66;95854.41;5031086;28;20053;-56
2023/03/07 08:17:44;;;;;;;9.88;5.32;;;;;;;3.41;66.61;95845.19;5029347;28;19960;-62
2023/03/07 08:20:11;;;;;;;13.48;6.30;;;;;;;3.33;66.57;95846.41;5053061;28;20036;-58
2023/03/07 08:22:39;;;;;;;9.50;5.00;;;;;;;3.27;66.28;95845.50;5072234;28;20063;-61
2023/03/07 08:25:07;;;;;;;13.60;6.63;;;;;;;3.35;66.94;95833.59;5083108;28;20051;-60
2023/03/07 08:27:33;;;;;;;9.52;5.72;;;;;;;3.41;66.84;95853.22;5053690;28;20048;-62
2023/03/07 08:30:00;;;;;;;12.35;5.95;;;;;;;3.46;67.71;95843.41;5034507;28;20132;-65
2023/03/07 08:32:27;;;;;;;8.55;4.13;;;;;;;3.55;66.59;95837.66;5071392;28;20056;-60
2023/03/07 08:34:53;;;;;;;15.18;7.70;;;;;;;3.45;66.70;95835.63;5076181;28;20052;-57
2023/03/07 08:37:20;;;;;;;9.18;4.68;;;;;;;3.66;64.97;95844.78;5074319;28;20123;-59
2023/03/07 08:39:46;;;;;;;11.88;6.38;;;;;;;3.58;66.20;95839.84;5073727;28;20041;-55
2023/03/07 08:42:13;;;;;;;12.05;5.82;;;;;;;3.75;65.07;95834.44;5073075;28;20047;-57
2023/03/07 08:44:39;;;;;;;13.07;6.70;;;;;;;3.55;64.69;95838.47;5076140;28;20044;-56
2023/03/07 08:47:06;;;;;;;11.27;5.25;;;;;;;3.62;65.91;95843.66;5082463;28;20048;-57
2023/03/07 08:49:33;;;;;;;10.98;5.70;;;;;;;3.42;64.11;95825.41;5076042;28;20113;-56
2023/03/07 08:51:59;;;;;;;11.07;5.43;;;;;;;3.41;64.27;95837.97;5074482;28;20465;-57
2023/03/07 08:54:26;;;;;;;10.73;6.03;;;;;;;3.35;64.34;95833.59;5069755;28;20048;-56
2023/03/07 08:56:53;;;;;;;10.90;5.65;;;;;;;3.35;64.00;95837.09;5080915;28;20028;-57
2023/03/07 08:59:19;;;;;;;9.85;4.15;;;;;;;3.32;62.41;95831.41;5074121;28;20039;-56
2023/03/07 09:01:46;;;;;;;13.85;7.28;;;;;;;3.10;62.91;95835.59;5071125;28;20044;-59
2023/03/07 09:04:12;;;;;;;9.00;5.00;;;;;;;3.09;63.03;95834.00;5077062;28;20040;-57
2023/03/07 09:06:39;;;;;;;11.60;6.10;;;;;;;3.24;62.98;95838.78;5080129;28;20032;-57
2023/03/07 09:09:05;;;;;;;12.90;6.22;;;;;;;3.24;63.16;95841.47;5069367;28;20040;-59
2023/03/07 09:11:32;;;;;;;25.23;12.88;;;;;;;3.29;63.02;95835.41;5076346;28;20688;-59
2023/03/07 09:13:58;;;;;;;21.05;11.48;;;;;;;3.11;63.12;95837.25;5050060;28;20477;-58
2023/03/07 09:16:25;;;;;;;9.32;5.07;;;;;;;3.28;62.38;95830.28;5065758;28;20699;-60
2023/03/07 09:18:52;;;;;;;11.20;5.32;;;;;;;3.33;62.56;95819.66;5079743;28;20492;-59
2023/03/07 09:21:18;;;;;;;13.20;7.50;;;;;;;3.38;62.97;95819.72;5077702;28;20450;-60
2023/03/07 09:23:45;;;;;;;11.13;5.78;;;;;;;3.41;62.23;95821.09;5077354;28;20036;-59
2023/03/07 09:26:12;;;;;;;8.90;5.18;;;;;;;3.18;61.88;95826.41;5077808;28;20044;-58
2023/03/07 09:28:38;;;;;;;11.40;5.50;;;;;;;3.32;63.20;95820.72;5076498;28;20032;-58
2023/03/07 09:31:09;;;;;;;10.52;5.20;;;;;;;3.36;62.64;95819.19;5075245;28;20680;-59
2023/03/07 09:33:36;;;;;;;10.02;6.07;;;;;;;3.30;60.01;95818.28;5075611;28;20093;-58
2023/03/07 09:36:04;;;;;;;10.27;5.63;;;;;;;3.35;60.71;95828.25;5080484;28;20097;-59
2023/03/07 09:38:31;;;;;;;7.93;4.13;;;;;;;3.66;59.38;95822.53;5072653;28;20064;-57
2023/03/07 09:41:16;;;;;;;7.63;4.15;;;;;;;3.52;59.46;95822.88;5077890;28;20127;-58
2023/03/07 09:43:49;;;;;;;9.50;4.88;;;;;;;3.41;58.49;95823.78;5077976;28;20036;-58
2023/03/07 09:46:46;;;;;;;6.65;3.00;;;;;;;3.46;58.19;95824.66;5076248;28;20054;-59
2023/03/07 09:49:19;;;;;;;6.68;3.03;;;;;;;3.56;57.80;95817.84;5068446;28;20043;-58
2023/03/07 09:51:50;;;;;;;8.63;4.80;;;;;;;3.42;58.85;95815.50;5060823;28;20071;-59
2023/03/07 09:54:21;;;;;;;9.55;4.20;;;;;;;3.41;58.57;95813.06;5068863;28;20123;-58
2023/03/07 09:56:53;;;;;;;9.90;4.32;;;;;;;3.47;58.35;95817.47;5080718;28;20105;-55
2023/03/07 09:59:28;;;;;;;8.35;4.07;;;;;;;3.54;57.78;95811.94;5081781;28;20064;-57
2023/03/07 10:02:04;;;;;;;6.50;3.97;;;;;;;3.31;57.64;95813.75;5073660;28;20036;-59
2023/03/07 10:04:45;;;;;;;6.07;3.78;;;;;;;3.48;57.98;95814.56;5072541;28;20047;-59
2023/03/07 10:07:14;;;;;;;7.13;2.77;;;;;;;3.34;56.06;95806.03;5072582;28;20044;-57
2023/03/07 10:09:43;;;;;;;8.68;5.05;;;;;;;3.38;57.32;95806.34;5083174;28;20390;-56
2023/03/07 10:13:01;;;;;;;6.80;2.83;;;;;;;3.58;56.47;95799.69;5083061;28;20092;-58
2023/03/07 10:15:37;;;;;;;7.97;4.00;;;;;;;3.55;55.31;95800.19;5035923;28;20478;-56
2023/03/07 10:18:22;;;;;;;7.07;3.65;;;;;;;3.44;56.58;95794.69;5073696;28;20032;-58
2023/03/07 10:21:16;;;;;;;6.85;3.20;;;;;;;3.41;55.83;95805.06;5076958;28;20093;-57
2023/03/07 10:24:13;;;;;;;6.05;2.65;;;;;;;3.61;56.25;95804.56;5074469;28;20102;-58
2023/03/07 10:26:46;;;;;;;5.70;2.92;;;;;;;3.65;54.77;95813.72;5073079;28;20129;-58
2023/03/07 10:29:17;;;;;;;7.28;4.00;;;;;;;3.36;55.31;95787.06;5071583;28;20032;-59
2023/03/07 10:31:47;;;;;;;8.63;5.03;;;;;;;3.33;55.90;95783.03;5073761;28;20105;-58
2023/03/07 10:34:24;;;;;;;7.03;3.40;;;;;;;3.32;55.88;95791.28;5073468;28;20213;-57
2023/03/07 10:37:12;;;;;;;7.53;3.67;;;;;;;3.42;54.64;95787.97;5071248;28;20522;-58
2023/03/07 10:39:51;;;;;;;7.68;3.67;;;;;;;3.37;55.42;95797.53;5068478;28;20086;-58
2023/03/07 10:42:23;;;;;;;9.27;3.45;;;;;;;3.32;55.67;95786.72;5073264;28;20075;-59
2023/03/07 10:44:50;;;;;;;7.93;4.05;;;;;;;3.23;55.74;95788.19;5072100;28;20054;-58
2023/03/07 10:47:23;;;;;;;8.85;4.78;;;;;;;3.21;56.80;95788.44;5070741;28;20093;-59
2023/03/07 10:49:53;;;;;;;9.38;3.90;;;;;;;3.43;55.14;95792.25;5067074;28;20048;-59
2023/03/07 10:52:37;;;;;;;9.83;4.67;;;;;;;3.18;55.87;95791.63;5070993;28;20044;-57
2023/03/07 10:55:35;;;;;;;8.40;3.97;;;;;;;3.10;55.82;95790.16;5073260;28;20067;-58
2023/03/07 10:58:10;;;;;;;7.63;3.05;;;;;;;3.13;55.34;95799.53;5074078;28;20043;-58
2023/03/07 11:00:37;;;;;;;8.13;3.88;;;;;;;3.36;54.94;95784.41;5075895;28;20048;-57
2023/03/07 11:03:03;;;;;;;9.73;5.13;;;;;;;3.08;55.17;95781.56;5073290;28;20044;-57
2023/03/07 11:05:33;;;;;;;9.82;3.75;;;;;;;3.27;54.06;95785.88;5073864;28;20162;-58
2023/03/07 11:08:18;;;;;;;7.63;3.78;;;;;;;3.22;54.38;95774.03;5075009;28;20044;-59
2023/03/07 11:10:45;;;;;;;8.48;4.53;;;;;;;3.09;54.50;95764.47;5075249;28;20038;-58
2023/03/07 11:13:16;;;;;;;7.95;4.10;;;;;;;3.08;54.98;95768.19;5075314;28;20040;-59
2023/03/07 11:15:44;;;;;;;7.53;3.70;;;;;;;3.32;55.03;95765.34;5072376;28;20711;-59
2023/03/07 11:18:30;;;;;;;9.00;3.85;;;;;;;3.31;54.31;95762.91;5076770;28;20081;-58
2023/03/07 11:20:58;;;;;;;7.03;3.95;;;;;;;3.31;54.16;95768.28;5069453;28;20111;-57
2023/03/07 11:23:30;;;;;;;8.27;3.63;;;;;;;3.40;53.92;95756.09;5065133;28;20102;-59
2023/03/07 11:26:29;;;;;;;7.72;3.58;;;;;;;3.49;53.45;95754.63;5065888;28;20499;-57
2023/03/07 11:29:12;;;;;;;8.07;3.50;;;;;;;3.46;53.52;95756.97;5057947;28;20052;-56
2023/03/07 11:31:57;;;;;;;7.00;3.35;;;;;;;3.36;54.86;95744.25;5070004;28;20738;-59
2023/03/07 11:34:36;;;;;;;10.73;4.93;;;;;;;3.15;54.43;95754.66;5073772;28;20043;-57
2023/03/07 11:37:39;;;;;;;7.55;3.83;;;;;;;3.40;54.55;95750.75;5074584;28;20237;-58
2023/03/07 11:40:23;;;;;;;8.80;4.05;;;;;;;3.49;54.25;95749.25;5069967;28;20097;-60
2023/03/07 11:43:10;;;;;;;11.60;5.68;;;;;;;3.50;55.09;95744.69;5072568;28;20097;-58
2023/03/07 11:46:20;;;;;;;10.48;4.35;;;;;;;3.47;54.44;95748.69;5071059;28;20043;-57